createdAt,value
2023-05-25T00:01:19.833Z,7.50
2023-05-25T00:03:49.660Z,7.50
2023-05-25T00:06:21.035Z,7.50
2023-05-25T00:08:49.918Z,7.50
2023-05-25T00:11:19.643Z,7.40
2023-05-25T00:13:51.002Z,7.40
2023-05-25T00:16:23.066Z,7.40
2023-05-25T00:18:57.414Z,7.50
2023-05-25T00:21:30.140Z,7.40
2023-05-25T00:24:04.179Z,7.40
2023-05-25T00:26:32.762Z,7.40
2023-05-25T00:29:04.003Z,7.30
2023-05-25T00:31:33.832Z,7.10
2023-05-25T00:34:03.359Z,7.00
2023-05-25T00:36:34.473Z,7.00
2023-05-25T00:39:02.653Z,7.00
2023-05-25T00:41:33.230Z,7.00
2023-05-25T00:44:04.146Z,7.00
2023-05-25T00:46:34.450Z,7.10
2023-05-25T00:49:04.391Z,7.00
2023-05-25T00:51:36.591Z,7.00
2023-05-25T00:54:04.934Z,7.00
2023-05-25T00:56:37.094Z,7.00
2023-05-25T00:59:09.194Z,6.90
2023-05-25T01:01:41.150Z,7.00
2023-05-25T01:04:15.211Z,6.90
2023-05-25T01:06:52.144Z,7.00
2023-05-25T01:09:26.622Z,7.00
2023-05-25T01:12:00.129Z,6.90
2023-05-25T01:14:29.846Z,6.90
2023-05-25T01:16:59.008Z,6.80
2023-05-25T01:19:33.911Z,6.80
2023-05-25T01:22:15.032Z,6.80
2023-05-25T01:24:48.049Z,6.80
2023-05-25T01:27:23.679Z,6.80
2023-05-25T01:29:53.904Z,6.90
2023-05-25T01:32:22.920Z,6.90
2023-05-25T01:34:54.413Z,6.90
2023-05-25T01:37:26.999Z,6.60
2023-05-25T01:40:02.706Z,6.70
2023-05-25T01:42:35.312Z,6.50
2023-05-25T01:45:07.708Z,6.50
2023-05-25T01:47:46.200Z,6.50
2023-05-25T01:50:25.819Z,6.60
2023-05-25T01:53:02.844Z,6.60
2023-05-25T01:55:39.543Z,6.50
2023-05-25T01:58:10.725Z,6.60
2023-05-25T02:00:41.482Z,6.50
2023-05-25T02:03:12.333Z,6.40
2023-05-25T02:05:46.518Z,6.10
2023-05-25T02:08:18.401Z,6.10
2023-05-25T02:10:47.052Z,6.10
2023-05-25T02:13:15.149Z,6.10
2023-05-25T02:15:43.383Z,6.20
2023-05-25T02:18:13.848Z,6.10
2023-05-25T02:20:44.585Z,6.20
2023-05-25T02:23:12.989Z,6.20
2023-05-25T02:25:45.228Z,6.10
2023-05-25T02:28:15.820Z,6.10
2023-05-25T02:30:43.969Z,6.20
2023-05-25T02:33:12.090Z,6.10
2023-05-25T02:35:42.414Z,6.20
2023-05-25T02:38:10.773Z,6.20
2023-05-25T02:40:39.182Z,6.20
2023-05-25T02:43:10.090Z,6.00
2023-05-25T02:45:39.265Z,6.10
2023-05-25T02:48:09.449Z,6.00
2023-05-25T02:50:37.473Z,6.00
2023-05-25T02:53:07.584Z,6.00
2023-05-25T02:55:35.675Z,6.00
2023-05-25T02:58:03.709Z,6.00
2023-05-25T03:00:53.650Z,6.00
2023-05-25T03:03:23.587Z,6.00
2023-05-25T03:05:51.799Z,6.00
2023-05-25T03:08:19.958Z,5.80
2023-05-25T03:10:50.872Z,5.80
2023-05-25T03:13:22.599Z,5.80
2023-05-25T03:15:54.484Z,5.80
2023-05-25T03:18:22.624Z,5.90
2023-05-25T03:20:55.028Z,5.80
2023-05-25T03:23:23.474Z,5.80
2023-05-25T03:25:51.790Z,5.80
2023-05-25T03:28:21.097Z,5.60
2023-05-25T03:30:52.802Z,5.60
2023-05-25T03:33:23.098Z,5.70
2023-05-25T03:35:53.842Z,5.60
2023-05-25T03:38:23.972Z,5.60
2023-05-25T03:40:55.775Z,5.60
2023-05-25T03:43:25.027Z,5.50
2023-05-25T03:45:54.521Z,5.30
2023-05-25T03:48:22.831Z,5.20
2023-05-25T03:50:51.337Z,5.30
2023-05-25T03:53:28.325Z,5.20
2023-05-25T03:56:11.053Z,5.30
2023-05-25T03:58:39.180Z,5.40
2023-05-25T04:01:14.928Z,5.40
2023-05-25T04:03:43.191Z,5.50
2023-05-25T04:06:11.599Z,5.60
2023-05-25T04:08:43.220Z,5.70
2023-05-25T04:11:11.435Z,5.70
2023-05-25T04:13:40.422Z,5.70
2023-05-25T04:16:12.698Z,5.80
2023-05-25T04:18:41.909Z,5.60
2023-05-25T04:21:12.973Z,5.70
2023-05-25T04:23:45.093Z,5.70
2023-05-25T04:26:19.284Z,5.70
2023-05-25T04:28:56.356Z,5.70
2023-05-25T04:31:27.916Z,5.90
2023-05-25T04:33:59.572Z,5.70
2023-05-25T04:36:32.861Z,5.80
2023-05-25T04:39:12.401Z,6.00
2023-05-25T04:41:43.765Z,6.10
2023-05-25T04:44:13.974Z,6.00
2023-05-25T04:46:45.301Z,6.20
2023-05-25T04:49:16.983Z,6.30
2023-05-25T04:51:45.282Z,6.40
2023-05-25T04:54:13.455Z,6.50
2023-05-25T04:56:47.001Z,6.50
2023-05-25T04:59:17.295Z,6.60
2023-05-25T05:01:49.879Z,6.60
2023-05-25T05:04:19.102Z,6.70
2023-05-25T05:07:37.734Z,6.80
2023-05-25T05:10:08.915Z,6.80
2023-05-25T05:12:43.691Z,7.00
2023-05-25T05:15:14.526Z,7.10
2023-05-25T05:17:45.379Z,7.20
2023-05-25T05:20:48.395Z,7.20
2023-05-25T05:23:29.605Z,7.20
2023-05-25T05:26:07.571Z,7.40
2023-05-25T05:28:39.963Z,7.50
2023-05-25T05:31:20.175Z,7.60
2023-05-25T05:33:52.763Z,7.70
2023-05-25T05:36:23.668Z,7.80
2023-05-25T05:38:55.590Z,7.90
2023-05-25T05:41:28.052Z,8.00
2023-05-25T05:43:58.278Z,8.20
2023-05-25T05:46:27.807Z,8.20
2023-05-25T05:48:57.429Z,8.40
2023-05-25T05:51:25.920Z,8.50
2023-05-25T05:54:04.356Z,8.60
2023-05-25T05:56:35.455Z,8.60
2023-05-25T06:02:16.072Z,8.80
2023-05-25T06:04:54.580Z,9.00
2023-05-25T06:07:31.972Z,9.20
2023-05-25T06:10:00.185Z,9.20
2023-05-25T06:12:29.718Z,9.10
2023-05-25T06:14:57.865Z,9.30
2023-05-25T06:17:52.573Z,9.60
2023-05-25T06:20:27.210Z,9.80
2023-05-25T06:22:55.588Z,9.90
2023-05-25T06:26:23.314Z,10.10
2023-05-25T06:29:17.890Z,10.40
2023-05-25T06:31:46.063Z,10.30
2023-05-25T06:34:14.341Z,10.10
2023-05-25T06:36:43.863Z,10.20
2023-05-25T06:39:32.345Z,10.30
2023-05-25T06:42:53.916Z,10.30
2023-05-25T06:48:45.439Z,13.80
2023-05-25T06:51:15.372Z,15.70
2023-05-25T06:53:46.518Z,17.10
2023-05-25T06:56:16.305Z,14.70
2023-05-25T07:01:54.607Z,17.50
2023-05-25T07:04:23.088Z,18.00
2023-05-25T07:06:52.658Z,17.60
2023-05-25T07:09:26.389Z,17.40
2023-05-25T07:11:55.299Z,18.10
2023-05-25T07:14:24.598Z,18.00
2023-05-25T07:16:53.949Z,18.40
2023-05-25T07:19:25.304Z,19.20
2023-05-25T07:21:54.892Z,19.00
2023-05-25T07:24:30.517Z,19.20
2023-05-25T07:26:58.602Z,20.00
2023-05-25T07:29:28.464Z,19.70
2023-05-25T07:32:06.097Z,20.70
2023-05-25T07:34:35.802Z,19.90
2023-05-25T07:37:06.400Z,17.80
2023-05-25T07:39:44.133Z,18.00
2023-05-25T07:42:20.789Z,19.00
2023-05-25T07:48:08.031Z,19.70
2023-05-25T07:50:36.274Z,19.80
2023-05-25T07:53:04.315Z,20.00
2023-05-25T07:55:39.519Z,20.50
2023-05-25T07:58:19.328Z,19.00
2023-05-25T08:00:49.759Z,21.30
2023-05-25T08:03:31.753Z,21.80
2023-05-25T08:06:09.037Z,21.10
2023-05-25T08:08:38.585Z,21.00
2023-05-25T08:11:09.855Z,21.80
2023-05-25T08:13:46.327Z,20.50
2023-05-25T08:16:41.297Z,21.80
2023-05-25T08:22:26.203Z,21.10
2023-05-25T08:25:04.114Z,21.90
2023-05-25T08:28:24.122Z,20.80
2023-05-25T08:30:58.808Z,20.60
2023-05-25T08:33:27.181Z,20.30
2023-05-25T08:35:56.976Z,21.20
2023-05-25T08:39:24.305Z,22.00
2023-05-25T08:41:53.141Z,21.40
2023-05-25T08:44:24.959Z,21.90
2023-05-25T08:47:01.083Z,21.80
2023-05-25T08:49:30.834Z,22.20
2023-05-25T08:51:59.432Z,20.90
2023-05-25T08:54:39.154Z,20.40
2023-05-25T08:57:17.648Z,20.10
2023-05-25T09:00:42.900Z,20.70
2023-05-25T09:03:30.829Z,21.00
2023-05-25T09:06:12.072Z,20.70
2023-05-25T09:08:44.904Z,21.00
2023-05-25T09:11:37.194Z,20.70
2023-05-25T09:14:09.766Z,21.90
2023-05-25T09:16:42.514Z,21.80
2023-05-25T09:19:31.201Z,20.70
2023-05-25T09:22:14.968Z,21.80
2023-05-25T09:24:57.020Z,21.10
2023-05-25T09:30:54.250Z,19.50
2023-05-25T09:33:27.750Z,19.90
2023-05-25T09:36:19.360Z,21.00
2023-05-25T09:39:06.024Z,22.40
2023-05-25T09:41:45.364Z,21.20
2023-05-25T09:44:32.249Z,18.30
2023-05-25T09:50:05.960Z,17.60
2023-05-25T09:52:40.072Z,17.80
2023-05-25T09:55:25.270Z,17.70
2023-05-25T09:57:56.469Z,17.40
2023-05-25T10:00:28.168Z,18.10
2023-05-25T10:02:58.735Z,17.90
2023-05-25T10:11:19.212Z,17.50
2023-05-25T10:13:52.178Z,18.00
2023-05-25T10:16:24.464Z,18.00
2023-05-25T10:19:02.546Z,17.60
2023-05-25T10:21:49.189Z,17.50
2023-05-25T10:24:42.870Z,17.60
2023-05-25T10:27:27.117Z,17.80
2023-05-25T10:30:00.562Z,17.80
2023-05-25T10:32:30.642Z,17.80
2023-05-25T10:34:59.770Z,17.70
2023-05-25T10:37:30.688Z,17.20
2023-05-25T10:40:04.432Z,17.80
2023-05-25T10:42:38.800Z,17.90
2023-05-25T10:45:11.462Z,17.60
2023-05-25T10:47:48.022Z,17.60
2023-05-25T10:50:27.109Z,17.70
2023-05-25T10:53:05.498Z,18.10
2023-05-25T10:59:11.798Z,18.00
2023-05-25T11:01:52.287Z,17.90
2023-05-25T11:04:23.678Z,18.00
2023-05-25T11:15:01.535Z,18.50
2023-05-25T11:21:14.691Z,18.30
2023-05-25T11:24:07.104Z,18.40
2023-05-25T11:29:59.559Z,18.90
2023-05-25T11:32:28.967Z,19.10
2023-05-25T11:34:59.160Z,19.20
2023-05-25T11:37:31.759Z,18.50
2023-05-25T11:40:00.214Z,18.40
2023-05-25T11:42:30.912Z,18.70
2023-05-25T11:45:04.867Z,18.70
2023-05-25T11:47:38.204Z,18.70
2023-05-25T11:50:17.392Z,18.30
2023-05-25T11:52:57.602Z,18.50
2023-05-25T11:55:27.621Z,18.90
2023-05-25T11:58:24.830Z,18.20
2023-05-25T12:03:40.267Z,18.40
2023-05-25T12:06:12.764Z,18.80
2023-05-25T12:08:52.953Z,18.60
2023-05-25T12:12:10.229Z,18.50
2023-05-25T12:14:52.175Z,18.60
2023-05-25T12:17:31.643Z,18.90
2023-05-25T12:19:59.919Z,18.90
2023-05-25T12:22:29.673Z,19.00
2023-05-25T12:24:59.256Z,18.30
2023-05-25T12:30:29.541Z,19.00
2023-05-25T12:33:15.748Z,18.70
2023-05-25T12:35:48.286Z,19.10
2023-05-25T12:41:29.729Z,19.10
2023-05-25T12:44:01.599Z,18.70
2023-05-25T12:46:43.559Z,19.30
2023-05-25T12:49:44.571Z,19.80
2023-05-25T12:52:33.502Z,19.70
2023-05-25T12:58:30.541Z,19.50
2023-05-25T13:01:00.076Z,19.60
2023-05-25T13:04:07.950Z,19.10
2023-05-25T13:07:46.749Z,18.40
2023-05-25T13:10:31.619Z,19.60
2023-05-25T13:13:19.431Z,19.30
2023-05-25T13:15:49.461Z,19.70
2023-05-25T13:18:34.372Z,20.30
2023-05-25T13:21:15.813Z,20.10
2023-05-25T13:24:09.282Z,19.80
2023-05-25T13:27:03.366Z,20.00
2023-05-25T13:29:31.728Z,20.20
2023-05-25T13:32:14.403Z,19.60
2023-05-25T13:34:51.128Z,19.70
2023-05-25T13:37:30.459Z,19.90
2023-05-25T13:40:09.946Z,19.80
2023-05-25T13:42:50.344Z,19.50
2023-05-25T13:45:23.575Z,19.50
2023-05-25T13:47:52.930Z,19.90
2023-05-25T13:50:22.817Z,20.20
2023-05-25T13:52:51.058Z,19.80
2023-05-25T14:00:07.065Z,20.30
2023-05-25T14:02:39.847Z,19.90
2023-05-25T14:05:25.525Z,20.00
2023-05-25T14:07:57.052Z,19.30
2023-05-25T14:14:03.889Z,19.70
2023-05-25T14:16:34.452Z,20.10
2023-05-25T14:19:05.732Z,19.60
2023-05-25T14:21:34.916Z,20.00
2023-05-25T14:24:09.361Z,20.30
2023-05-25T14:26:38.663Z,20.20
2023-05-25T14:29:13.145Z,20.40
2023-05-25T14:31:42.136Z,20.10
2023-05-25T14:34:13.545Z,20.40
2023-05-25T14:36:42.455Z,20.10
2023-05-25T14:39:15.068Z,20.20
2023-05-25T14:42:09.284Z,20.40
2023-05-25T14:45:07.128Z,20.00
2023-05-25T14:47:40.886Z,20.20
2023-05-25T14:50:57.714Z,20.20
2023-05-25T14:53:25.890Z,20.40
2023-05-25T14:55:56.961Z,20.20
2023-05-25T14:58:30.006Z,20.20
2023-05-25T15:00:58.329Z,19.30
2023-05-25T15:03:39.285Z,19.90
2023-05-25T15:06:09.741Z,20.10
2023-05-25T15:08:38.401Z,20.40
2023-05-25T15:11:09.936Z,20.60
2023-05-25T15:13:40.935Z,20.40
2023-05-25T15:16:19.338Z,20.50
2023-05-25T15:18:48.804Z,20.40
2023-05-25T15:21:18.641Z,20.10
2023-05-25T15:24:06.582Z,20.10
2023-05-25T15:27:13.947Z,20.20
2023-05-25T15:29:43.956Z,20.20
2023-05-25T15:32:21.021Z,20.10
2023-05-25T15:34:50.927Z,20.20
2023-05-25T15:37:31.763Z,20.30
2023-05-25T15:40:02.030Z,20.30
2023-05-25T15:42:46.350Z,20.20
2023-05-25T15:45:14.777Z,20.20
2023-05-25T15:47:46.662Z,20.20
2023-05-25T15:50:14.834Z,20.20
2023-05-25T15:52:50.127Z,19.70
2023-05-25T15:55:18.513Z,19.50
2023-05-25T15:57:49.433Z,19.90
2023-05-25T16:00:21.612Z,19.80
2023-05-25T16:02:50.098Z,19.80
2023-05-25T16:05:53.166Z,19.40
2023-05-25T16:11:41.807Z,19.30
2023-05-25T16:14:13.789Z,20.00
2023-05-25T16:16:42.799Z,19.80
2023-05-25T16:19:15.037Z,19.60
2023-05-25T16:21:48.770Z,19.20
2023-05-25T16:24:21.136Z,19.40
2023-05-25T16:26:53.557Z,19.70
2023-05-25T16:29:24.015Z,19.50
2023-05-25T16:31:53.902Z,19.60
2023-05-25T16:34:24.446Z,19.60
2023-05-25T16:36:54.090Z,19.50
2023-05-25T16:39:57.176Z,19.60
2023-05-25T16:42:40.694Z,19.50
2023-05-25T16:45:16.950Z,19.50
2023-05-25T16:48:03.951Z,19.40
2023-05-25T16:50:35.152Z,19.40
2023-05-25T16:53:03.269Z,19.50
2023-05-25T16:55:40.312Z,19.30
2023-05-25T16:58:13.582Z,19.50
2023-05-25T17:00:45.363Z,19.30
2023-05-25T17:03:23.161Z,19.20
2023-05-25T17:05:54.405Z,19.00
2023-05-25T17:08:24.325Z,18.90
2023-05-25T17:10:54.164Z,18.70
2023-05-25T17:13:26.186Z,19.00
2023-05-25T17:15:54.511Z,19.00
2023-05-25T17:18:57.067Z,19.00
2023-05-25T17:21:32.215Z,18.90
2023-05-25T17:24:01.710Z,18.90
2023-05-25T17:27:04.255Z,18.80
2023-05-25T17:33:16.725Z,18.70
2023-05-25T17:35:45.941Z,18.60
2023-05-25T17:38:32.654Z,18.60
2023-05-25T17:41:06.747Z,18.50
2023-05-25T17:43:36.307Z,18.50
2023-05-25T17:46:04.479Z,18.50
2023-05-25T17:48:33.994Z,18.40
2023-05-25T17:51:02.407Z,18.40
2023-05-25T17:53:30.778Z,18.20
2023-05-25T17:55:59.349Z,18.20
2023-05-25T17:58:27.907Z,18.30
2023-05-25T18:00:59.205Z,18.20
2023-05-25T18:03:28.909Z,18.20
2023-05-25T18:05:58.425Z,18.20
2023-05-25T18:08:27.393Z,18.10
2023-05-25T18:14:10.465Z,17.90
2023-05-25T18:16:44.564Z,17.80
2023-05-25T18:19:21.566Z,17.70
2023-05-25T18:22:17.048Z,17.70
2023-05-25T18:25:19.479Z,17.60
2023-05-25T18:28:00.208Z,17.50
2023-05-25T18:30:28.311Z,17.40
2023-05-25T18:32:57.896Z,17.40
2023-05-25T18:35:28.619Z,17.30
2023-05-25T18:40:24.641Z,17.20
2023-05-25T18:45:46.468Z,17.00
2023-05-25T18:48:18.934Z,16.90
2023-05-25T18:50:52.012Z,16.80
2023-05-25T18:53:22.817Z,16.80
2023-05-25T18:56:02.330Z,16.70
2023-05-25T18:58:31.972Z,16.60
2023-05-25T19:01:03.790Z,16.60
2023-05-25T19:03:34.645Z,16.50
2023-05-25T19:06:05.396Z,16.50
2023-05-25T19:08:33.496Z,16.40
2023-05-25T19:11:03.897Z,16.30
2023-05-25T19:13:32.088Z,16.20
2023-05-25T19:16:13.766Z,16.20
2023-05-25T19:18:49.321Z,16.10
2023-05-25T19:21:25.043Z,16.00
2023-05-25T19:23:58.501Z,16.00
2023-05-25T19:26:34.264Z,15.90
2023-05-25T19:29:02.315Z,15.80
2023-05-25T19:31:46.021Z,15.70
2023-05-25T19:34:20.645Z,15.60
2023-05-25T19:36:59.770Z,15.60
2023-05-25T19:39:39.815Z,15.50
2023-05-25T19:42:17.744Z,15.50
2023-05-25T19:44:50.519Z,15.40
2023-05-25T19:47:20.095Z,15.30
2023-05-25T19:49:51.132Z,15.30
2023-05-25T19:52:19.653Z,15.20
2023-05-25T19:54:49.278Z,15.10
2023-05-25T19:57:28.075Z,15.00
2023-05-25T20:00:21.370Z,15.00
2023-05-25T20:03:31.921Z,15.00
2023-05-25T20:06:04.452Z,14.90
2023-05-25T20:09:00.190Z,14.90
2023-05-25T20:11:31.410Z,14.80
2023-05-25T20:14:01.115Z,14.80
2023-05-25T20:16:31.277Z,14.70
2023-05-25T20:19:00.695Z,14.60
2023-05-25T20:21:33.028Z,14.60
2023-05-25T20:24:02.373Z,14.50
2023-05-25T20:26:31.883Z,14.40
2023-05-25T20:29:03.300Z,14.40
2023-05-25T20:31:39.314Z,14.30
2023-05-25T20:34:08.159Z,14.30
2023-05-25T20:36:45.803Z,14.20
2023-05-25T20:39:41.319Z,14.20
2023-05-25T20:42:10.356Z,14.10
2023-05-25T20:44:39.970Z,14.00
2023-05-25T20:47:11.567Z,14.00
2023-05-25T20:49:40.205Z,13.90
2023-05-25T20:52:11.686Z,13.90
2023-05-25T20:54:45.106Z,13.80
2023-05-25T20:57:15.349Z,13.70
2023-05-25T20:59:52.458Z,13.70
2023-05-25T21:02:20.706Z,13.60
2023-05-25T21:04:49.011Z,13.50
2023-05-25T21:07:22.317Z,13.50
2023-05-25T21:09:50.376Z,13.50
2023-05-25T21:12:21.294Z,13.50
2023-05-25T21:15:11.566Z,13.50
2023-05-25T21:17:39.691Z,13.50
2023-05-25T21:22:54.884Z,13.40
2023-05-25T21:25:26.528Z,13.30
2023-05-25T21:27:56.848Z,13.20
2023-05-25T21:30:25.663Z,13.20
2023-05-25T21:32:55.261Z,13.10
2023-05-25T21:35:27.928Z,13.10
2023-05-25T21:38:00.791Z,13.10
2023-05-25T21:40:30.793Z,13.00
2023-05-25T21:42:59.896Z,13.00
2023-05-25T21:45:27.996Z,12.90
2023-05-25T21:47:56.221Z,12.90
2023-05-25T21:50:27.172Z,12.80
2023-05-25T21:52:55.241Z,12.80
2023-05-25T21:55:28.280Z,12.80
2023-05-25T21:57:57.177Z,12.80
2023-05-25T22:00:30.511Z,12.70
2023-05-25T22:02:58.757Z,12.60
2023-05-25T22:05:29.790Z,12.60
2023-05-25T22:07:57.944Z,12.60
2023-05-25T22:10:30.361Z,12.60
2023-05-25T22:12:59.069Z,12.50
2023-05-25T22:15:53.573Z,12.50
2023-05-25T22:18:26.152Z,12.50
2023-05-25T22:20:54.397Z,12.30
2023-05-25T22:23:22.532Z,12.30
2023-05-25T22:25:54.679Z,12.30
2023-05-25T22:28:24.275Z,12.30
2023-05-25T22:30:53.884Z,12.20
2023-05-25T22:33:22.454Z,12.20
2023-05-25T22:36:06.336Z,12.20
2023-05-25T22:38:36.628Z,12.10
2023-05-25T22:41:10.540Z,12.10
2023-05-25T22:43:38.614Z,12.10
2023-05-25T22:46:06.778Z,12.00
2023-05-25T22:51:44.359Z,11.90
2023-05-25T22:54:14.393Z,11.90
2023-05-25T22:56:45.771Z,12.00
2023-05-25T22:59:30.204Z,12.00
2023-05-25T23:02:06.475Z,12.00
2023-05-25T23:04:45.291Z,11.90
2023-05-25T23:07:18.384Z,11.80
2023-05-25T23:09:48.789Z,11.80
2023-05-25T23:12:22.034Z,11.70
2023-05-25T23:14:54.108Z,11.60
2023-05-25T23:17:26.962Z,11.60
2023-05-25T23:20:00.405Z,11.50
2023-05-25T23:22:29.885Z,11.50
2023-05-25T23:25:00.762Z,11.40
2023-05-25T23:27:40.835Z,11.40
2023-05-25T23:30:13.312Z,11.40
2023-05-25T23:32:45.129Z,11.20
2023-05-25T23:35:20.460Z,11.20
2023-05-25T23:37:48.713Z,11.20
2023-05-25T23:40:17.068Z,11.20
2023-05-25T23:42:49.131Z,11.10
2023-05-25T23:45:18.407Z,11.10
2023-05-25T23:47:49.125Z,11.10
2023-05-25T23:50:21.070Z,11.00
2023-05-25T23:52:52.911Z,11.00
2023-05-25T23:55:21.130Z,10.90
2023-05-25T23:57:53.271Z,11.00
